createdAt,value
2024-01-03T00:02:00.785Z,94449.00
2024-01-03T00:06:12.317Z,94451.00
2024-01-03T00:10:31.130Z,94458.00
2024-01-03T00:14:36.996Z,94461.00
2024-01-03T00:18:41.865Z,94456.00
2024-01-03T00:22:45.038Z,94463.00
2024-01-03T00:26:49.020Z,94461.00
2024-01-03T00:30:53.803Z,94454.00
2024-01-03T00:34:59.685Z,94460.00
2024-01-03T00:39:02.930Z,94452.00
2024-01-03T00:43:06.071Z,94452.00
2024-01-03T00:47:11.096Z,94468.00
2024-01-03T00:51:14.454Z,94474.00
2024-01-03T00:55:17.634Z,94486.00
2024-01-03T00:59:21.098Z,94483.00
2024-01-03T01:03:25.710Z,94475.00
2024-01-03T01:07:28.848Z,94485.00
2024-01-03T01:11:32.046Z,94493.00
2024-01-03T01:15:35.167Z,94494.00
2024-01-03T01:19:39.757Z,94490.00
2024-01-03T01:23:43.774Z,94505.00
2024-01-03T01:27:48.930Z,94505.00
2024-01-03T01:31:52.621Z,94506.00
2024-01-03T01:35:57.250Z,94524.00
2024-01-03T01:40:00.283Z,94530.00
2024-01-03T01:44:03.354Z,94535.00
2024-01-03T01:48:07.509Z,94542.00
2024-01-03T01:52:20.247Z,94540.00
2024-01-03T01:56:24.198Z,94537.00
2024-01-03T02:00:27.420Z,94534.00
2024-01-03T02:04:30.794Z,94536.00
2024-01-03T02:08:36.154Z,94548.00
2024-01-03T02:12:40.162Z,94535.00
2024-01-03T02:16:43.411Z,94534.00
2024-01-03T02:20:47.513Z,94528.00
2024-01-03T02:24:51.969Z,94547.00
2024-01-03T02:28:55.006Z,94536.00
2024-01-03T02:32:58.203Z,94546.00
2024-01-03T02:37:01.801Z,94542.00
2024-01-03T02:41:06.615Z,94556.00
2024-01-03T02:45:10.449Z,94550.00
2024-01-03T02:49:13.657Z,94551.00
2024-01-03T02:53:17.079Z,94547.00
2024-01-03T02:57:21.786Z,94557.00
2024-01-03T03:01:24.964Z,94558.00
2024-01-03T03:05:28.075Z,94552.00
2024-01-03T03:09:31.215Z,94531.00
2024-01-03T03:13:35.697Z,94552.00
2024-01-03T03:17:39.018Z,94546.00
2024-01-03T03:21:42.389Z,94559.00
2024-01-03T03:25:45.606Z,94558.00
2024-01-03T03:29:51.228Z,94568.00
2024-01-03T03:33:54.606Z,94567.00
2024-01-03T03:37:58.340Z,94563.00
2024-01-03T03:42:02.342Z,94560.00
2024-01-03T03:46:07.058Z,94568.00
2024-01-03T03:50:10.163Z,94585.00
2024-01-03T03:54:13.191Z,94580.00
2024-01-03T03:58:16.260Z,94576.00
2024-01-03T04:02:20.863Z,94596.00
2024-01-03T04:06:24.036Z,94590.00
2024-01-03T04:10:27.190Z,94579.00
2024-01-03T04:14:30.253Z,94577.00
2024-01-03T04:18:35.645Z,94569.00
2024-01-03T04:22:38.861Z,94561.00
2024-01-03T04:26:41.990Z,94575.00
2024-01-03T04:30:45.272Z,94580.00
2024-01-03T04:34:49.765Z,94574.00
2024-01-03T04:38:52.877Z,94574.00
2024-01-03T04:42:55.963Z,94577.00
2024-01-03T04:46:59.015Z,94577.00
2024-01-03T04:51:03.945Z,94593.00
2024-01-03T04:55:07.841Z,94590.00
2024-01-03T04:59:10.973Z,94584.00
2024-01-03T05:03:14.485Z,94579.00
2024-01-03T05:07:18.994Z,94597.00
2024-01-03T05:11:22.513Z,94599.00
2024-01-03T05:15:25.733Z,94592.00
2024-01-03T05:19:29.234Z,94588.00
2024-01-03T05:23:33.881Z,94593.00
2024-01-03T05:27:37.268Z,94598.00
2024-01-03T05:31:40.336Z,94590.00
2024-01-03T05:35:43.477Z,94606.00
2024-01-03T05:39:48.075Z,94601.00
2024-01-03T05:43:51.170Z,94626.00
2024-01-03T05:47:54.442Z,94637.00
2024-01-03T05:51:58.160Z,94604.00
2024-01-03T05:56:02.697Z,94606.00
2024-01-03T06:00:07.304Z,94621.00
2024-01-03T06:04:10.442Z,94623.00
2024-01-03T06:08:13.828Z,94624.00
2024-01-03T06:12:19.096Z,94617.00
2024-01-03T06:16:22.335Z,94631.00
2024-01-03T06:20:25.503Z,94632.00
2024-01-03T06:24:28.600Z,94639.00
2024-01-03T06:28:33.089Z,94635.00
2024-01-03T06:32:36.307Z,94637.00
2024-01-03T06:36:39.428Z,94646.00
2024-01-03T06:40:42.502Z,94644.00
2024-01-03T06:44:47.073Z,94649.00
2024-01-03T06:48:50.446Z,94653.00
2024-01-03T06:52:53.803Z,94658.00
2024-01-03T06:56:57.093Z,94666.00
2024-01-03T07:01:01.647Z,94667.00
2024-01-03T07:05:05.058Z,94674.00
2024-01-03T07:09:09.513Z,94684.00
2024-01-03T07:13:12.667Z,94683.00
2024-01-03T07:17:17.263Z,94707.00
2024-01-03T07:21:21.169Z,94696.00
2024-01-03T07:25:24.311Z,94693.00
2024-01-03T07:29:27.431Z,94696.00
2024-01-03T07:33:32.181Z,94702.00
2024-01-03T07:37:35.806Z,94697.00
2024-01-03T07:41:38.966Z,94702.00
2024-01-03T07:45:42.283Z,94701.00
2024-01-03T07:49:46.816Z,94699.00
2024-01-03T07:53:50.032Z,94698.00
2024-01-03T07:57:53.195Z,94701.00
2024-01-03T08:01:56.292Z,94692.00
2024-01-03T08:06:04.966Z,94690.00
2024-01-03T08:10:10.204Z,94683.00
2024-01-03T08:14:13.606Z,94672.00
2024-01-03T08:18:17.081Z,94688.00
2024-01-03T08:22:21.744Z,94698.00
2024-01-03T08:26:24.849Z,94675.00
2024-01-03T08:30:28.026Z,94690.00
2024-01-03T08:34:31.088Z,94689.00
2024-01-03T08:38:37.030Z,94693.00
2024-01-03T08:42:40.228Z,94693.00
2024-01-03T08:46:43.722Z,94691.00
2024-01-03T08:50:46.997Z,94684.00
2024-01-03T08:54:51.595Z,94677.00
2024-01-03T08:58:54.694Z,94675.00
2024-01-03T09:03:01.552Z,94683.00
2024-01-03T09:07:05.762Z,94679.00
2024-01-03T09:11:13.022Z,94701.00
2024-01-03T09:15:16.428Z,94707.00
2024-01-03T09:19:19.852Z,94704.00
2024-01-03T09:23:23.230Z,94711.00
2024-01-03T09:27:27.672Z,94703.00
2024-01-03T09:31:32.871Z,94722.00
2024-01-03T09:35:37.013Z,94715.00
2024-01-03T09:39:40.218Z,94704.00
2024-01-03T09:43:45.402Z,94704.00
2024-01-03T09:47:48.593Z,94689.00
2024-01-03T09:51:53.662Z,94690.00
2024-01-03T09:55:57.225Z,94680.00
2024-01-03T10:00:01.753Z,94700.00
2024-01-03T10:04:05.058Z,94675.00
2024-01-03T10:08:18.688Z,94668.00
2024-01-03T10:12:22.155Z,94701.00
2024-01-03T10:16:27.410Z,94668.00
2024-01-03T10:20:32.196Z,94681.00
2024-01-03T10:24:42.448Z,94663.00
2024-01-03T10:28:45.546Z,94682.00
2024-01-03T10:32:59.147Z,94664.00
2024-01-03T10:37:02.824Z,94661.00
2024-01-03T10:41:06.257Z,94653.00
2024-01-03T10:45:10.471Z,94662.00
2024-01-03T10:49:15.975Z,94643.00
2024-01-03T10:53:22.002Z,94634.00
2024-01-03T10:57:31.231Z,94649.00
2024-01-03T11:01:41.416Z,94636.00
2024-01-03T11:05:58.675Z,94633.00
2024-01-03T11:10:01.929Z,94641.00
2024-01-03T11:14:24.736Z,94633.00
2024-01-03T11:18:56.349Z,94628.00
2024-01-03T11:23:03.526Z,94628.00
2024-01-03T11:27:07.959Z,94608.00
2024-01-03T11:31:11.145Z,94620.00
2024-01-03T11:35:14.544Z,94617.00
2024-01-03T11:39:36.257Z,94617.00
2024-01-03T11:43:39.353Z,94605.00
2024-01-03T11:47:43.904Z,94601.00
2024-01-03T11:51:47.273Z,94604.00
2024-01-03T11:55:52.647Z,94589.00
2024-01-03T12:00:01.485Z,94588.00
2024-01-03T12:04:11.615Z,94595.00
2024-01-03T12:08:15.391Z,94600.00
2024-01-03T12:12:19.934Z,94611.00
2024-01-03T12:16:22.977Z,94599.00
2024-01-03T12:20:28.256Z,94622.00
2024-01-03T12:24:41.069Z,94589.00
2024-01-03T12:28:45.643Z,94568.00
2024-01-03T12:32:50.165Z,94589.00
2024-01-03T12:36:53.397Z,94580.00
2024-01-03T12:40:58.714Z,94598.00
2024-01-03T12:45:04.827Z,94591.00
2024-01-03T12:49:07.981Z,94598.00
2024-01-03T12:53:11.508Z,94599.00
2024-01-03T12:57:14.918Z,94600.00
2024-01-03T13:01:19.502Z,94612.00
2024-01-03T13:05:22.667Z,94611.00
2024-01-03T13:09:25.835Z,94605.00
2024-01-03T13:13:29.009Z,94599.00
2024-01-03T13:17:33.770Z,94606.00
2024-01-03T13:21:49.352Z,94609.00
2024-01-03T13:25:52.764Z,94611.00
2024-01-03T13:29:55.849Z,94617.00
2024-01-03T13:34:00.535Z,94600.00
2024-01-03T13:38:05.229Z,94601.00
2024-01-03T13:42:08.629Z,94605.00
2024-01-03T13:46:14.514Z,94604.00
2024-01-03T13:50:19.022Z,94607.00
2024-01-03T13:54:22.284Z,94604.00
2024-01-03T13:58:25.400Z,94612.00
2024-01-03T14:02:28.558Z,94601.00
2024-01-03T14:06:33.157Z,94594.00
2024-01-03T14:10:36.814Z,94588.00
2024-01-03T14:14:42.154Z,94581.00
2024-01-03T14:18:45.444Z,94593.00
2024-01-03T14:23:11.703Z,94596.00
2024-01-03T14:27:16.726Z,94593.00
2024-01-03T14:31:22.281Z,94591.00
2024-01-03T14:35:25.440Z,94590.00
2024-01-03T14:39:30.035Z,94604.00
2024-01-03T14:43:34.155Z,94590.00
2024-01-03T14:47:37.591Z,94604.00
2024-01-03T14:51:40.745Z,94598.00
2024-01-03T14:55:45.258Z,94618.00
2024-01-03T14:59:48.573Z,94606.00
2024-01-03T15:03:51.871Z,94611.00
2024-01-03T15:07:56.158Z,94604.00
2024-01-03T15:12:00.728Z,94603.00
2024-01-03T15:16:04.036Z,94598.00
2024-01-03T15:20:08.665Z,94594.00
2024-01-03T15:24:11.974Z,94605.00
2024-01-03T15:28:17.350Z,94598.00
2024-01-03T15:32:20.555Z,94587.00
2024-01-03T15:36:24.180Z,94592.00
2024-01-03T15:40:27.305Z,94590.00
2024-01-03T15:44:32.097Z,94576.00
2024-01-03T15:48:35.578Z,94569.00
2024-01-03T15:52:41.518Z,94573.00
2024-01-03T15:56:45.324Z,94573.00
2024-01-03T16:00:51.072Z,94579.00
2024-01-03T16:04:54.264Z,94577.00
2024-01-03T16:08:57.397Z,94572.00
2024-01-03T16:13:01.075Z,94569.00
2024-01-03T16:17:06.513Z,94569.00
2024-01-03T16:21:09.648Z,94564.00
2024-01-03T16:25:13.036Z,94556.00
2024-01-03T16:29:19.202Z,94556.00
2024-01-03T16:33:25.117Z,94560.00
2024-01-03T16:37:32.056Z,94550.00
2024-01-03T16:41:35.233Z,94560.00
2024-01-03T16:45:38.474Z,94549.00
2024-01-03T16:49:46.124Z,94549.00
2024-01-03T16:53:49.399Z,94549.00
2024-01-03T16:57:52.987Z,94544.00
2024-01-03T17:01:56.140Z,94541.00
2024-01-03T17:06:00.711Z,94536.00
2024-01-03T17:10:04.872Z,94543.00
2024-01-03T17:14:08.000Z,94553.00
2024-01-03T17:18:11.319Z,94565.00
2024-01-03T17:22:16.621Z,94556.00
2024-01-03T17:26:20.477Z,94557.00
2024-01-03T17:30:23.818Z,94556.00
2024-01-03T17:34:27.377Z,94554.00
2024-01-03T17:38:32.226Z,94553.00
2024-01-03T17:42:35.337Z,94545.00
2024-01-03T17:46:38.407Z,94549.00
2024-01-03T17:50:41.699Z,94534.00
2024-01-03T17:54:46.170Z,94529.00
2024-01-03T17:58:49.331Z,94530.00
2024-01-03T18:02:52.645Z,94520.00
2024-01-03T18:06:55.825Z,94526.00
2024-01-03T18:11:00.626Z,94516.00
2024-01-03T18:15:03.867Z,94525.00
2024-01-03T18:19:07.233Z,94528.00
2024-01-03T18:23:14.814Z,94514.00
2024-01-03T18:27:22.179Z,94523.00
2024-01-03T18:31:27.013Z,94501.00
2024-01-03T18:35:31.574Z,94499.00
2024-01-03T18:39:34.685Z,94492.00
2024-01-03T18:43:39.129Z,94486.00
2024-01-03T18:47:43.269Z,94492.00
2024-01-03T18:51:46.583Z,94471.00
2024-01-03T18:55:49.712Z,94479.00
2024-01-03T18:59:54.255Z,94473.00
2024-01-03T19:03:57.734Z,94466.00
2024-01-03T19:08:00.810Z,94444.00
2024-01-03T19:12:04.196Z,94451.00
2024-01-03T19:16:10.228Z,94444.00
2024-01-03T19:20:13.787Z,94432.00
2024-01-03T19:24:17.045Z,94432.00
2024-01-03T19:28:20.358Z,94433.00
2024-01-03T19:32:24.821Z,94444.00
2024-01-03T19:36:28.125Z,94450.00
2024-01-03T19:40:31.189Z,94439.00
2024-01-03T19:44:34.358Z,94456.00
2024-01-03T19:48:38.983Z,94446.00
2024-01-03T19:52:42.128Z,94443.00
2024-01-03T19:56:45.282Z,94456.00
2024-01-03T20:00:48.613Z,94447.00
2024-01-03T20:04:53.511Z,94437.00
2024-01-03T20:08:57.999Z,94443.00
2024-01-03T20:13:01.515Z,94427.00
2024-01-03T20:17:05.260Z,94460.00
2024-01-03T20:21:10.300Z,94465.00
2024-01-03T20:25:13.620Z,94455.00
2024-01-03T20:29:17.655Z,94459.00
2024-01-03T20:33:21.017Z,94467.00
2024-01-03T20:37:26.831Z,94482.00
2024-01-03T20:41:30.272Z,94464.00
2024-01-03T20:45:34.872Z,94466.00
2024-01-03T20:49:38.185Z,94464.00
2024-01-03T20:53:42.714Z,94478.00
2024-01-03T20:57:45.856Z,94486.00
2024-01-03T21:01:51.588Z,94482.00
2024-01-03T21:05:55.262Z,94488.00
2024-01-03T21:09:59.776Z,94489.00
2024-01-03T21:14:06.626Z,94485.00
2024-01-03T21:18:09.901Z,94487.00
2024-01-03T21:22:13.388Z,94495.00
2024-01-03T21:26:17.903Z,94510.00
2024-01-03T21:30:21.843Z,94504.00
2024-01-03T21:34:25.351Z,94511.00
2024-01-03T21:38:29.099Z,94516.00
2024-01-03T21:42:33.553Z,94522.00
2024-01-03T21:46:36.755Z,94516.00
2024-01-03T21:50:40.061Z,94510.00
2024-01-03T21:54:43.154Z,94523.00
2024-01-03T21:58:47.692Z,94519.00
2024-01-03T22:02:52.944Z,94533.00
2024-01-03T22:06:56.415Z,94531.00
2024-01-03T22:11:00.745Z,94538.00
2024-01-03T22:15:05.845Z,94539.00
2024-01-03T22:19:10.543Z,94555.00
2024-01-03T22:23:14.632Z,94576.00
2024-01-03T22:27:17.683Z,94573.00
2024-01-03T22:31:22.276Z,94572.00
2024-01-03T22:35:25.546Z,94584.00
2024-01-03T22:39:28.593Z,94575.00
2024-01-03T22:43:31.678Z,94580.00
2024-01-03T22:47:36.273Z,94564.00
2024-01-03T22:51:41.277Z,94578.00
2024-01-03T22:55:45.066Z,94592.00
2024-01-03T22:59:48.350Z,94588.00
2024-01-03T23:03:53.305Z,94590.00
2024-01-03T23:07:56.450Z,94587.00
2024-01-03T23:11:59.590Z,94582.00
2024-01-03T23:16:03.727Z,94588.00
2024-01-03T23:20:10.162Z,94578.00
2024-01-03T23:24:13.491Z,94563.00
2024-01-03T23:28:16.828Z,94572.00
2024-01-03T23:32:20.133Z,94574.00
2024-01-03T23:36:24.665Z,94564.00
2024-01-03T23:40:27.769Z,94567.00
2024-01-03T23:44:30.899Z,94551.00
2024-01-03T23:48:34.373Z,94553.00
2024-01-03T23:52:39.065Z,94555.00
2024-01-03T23:56:42.145Z,94558.00
